Time;durP1;ratioP1;P1;durP2;ratioP2;P2;SDS_P1;SDS_P2;PMS_P1;PMS_P2;Temp;Humidity;BMP_temperature;BMP_pressure;BME280_temperature;BME280_humidity;BME280_pressure;Samples;Min_cycle;Max_cycle;Signal;HPM_P1;HPM_P2
2023/05/20 00:00:27;;;;;;;6.15;4.18;;;12.90;69.40;;;15.89;47.16;97747.75;4954964;28;20512;-38
2023/05/20 00:02:54;;;;;;;6.05;4.38;;;12.90;69.30;;;15.86;47.25;97754.34;4972033;28;20426;-38
2023/05/20 00:05:22;;;;;;;5.82;4.10;;;12.80;69.00;;;15.86;47.45;97756.22;4972469;28;20411;-39
2023/05/20 00:07:50;;;;;;;6.07;4.22;;;12.80;69.40;;;15.82;47.26;97760.28;4972035;28;20047;-38
2023/05/20 00:10:18;;;;;;;7.53;4.65;;;12.80;69.80;;;15.80;47.45;97759.66;4971874;28;20042;-38
2023/05/20 00:12:45;;;;;;;6.18;4.65;;;12.80;69.80;;;15.81;47.50;97759.47;4971897;28;20046;-38
2023/05/20 00:15:13;;;;;;;5.50;4.25;;;12.80;69.90;;;15.82;47.43;97757.59;4972304;28;20035;-38
2023/05/20 00:17:40;;;;;;;7.22;4.40;;;12.80;70.10;;;15.82;47.63;97749.53;4972066;28;20046;-38
2023/05/20 00:20:09;;;;;;;6.82;5.28;;;12.80;70.20;;;15.80;47.66;97755.13;4971782;28;20053;-38
2023/05/20 00:22:36;;;;;;;6.68;4.60;;;12.80;71.30;;;15.77;47.55;97743.94;4971549;28;20444;-38
2023/05/20 00:25:04;;;;;;;9.93;5.03;;;12.70;70.70;;;15.71;47.76;97743.66;4971901;28;20054;-38
2023/05/20 00:27:32;;;;;;;5.75;5.15;;;12.70;71.10;;;15.69;47.96;97742.19;4971974;28;20050;-38
2023/05/20 00:29:59;;;;;;;6.85;5.20;;;12.70;71.10;;;15.66;48.10;97745.25;4954219;28;20417;-37
2023/05/20 00:32:27;;;;;;;6.43;4.85;;;12.60;71.40;;;15.62;48.21;97747.47;4973543;28;20054;-38
2023/05/20 00:34:59;;;;;;;6.47;4.70;;;12.60;71.80;;;15.55;48.48;97747.41;4975490;28;20232;-38
2023/05/20 00:37:27;;;;;;;10.00;5.72;;;12.50;72.90;;;15.52;48.46;97749.63;4975570;28;20047;-38
2023/05/20 00:39:55;;;;;;;7.35;5.03;;;12.50;72.70;;;15.52;48.57;97746.97;4975550;28;20044;-38
2023/05/20 00:42:25;;;;;;;5.75;4.85;;;12.50;72.60;;;15.55;48.71;97751.97;4975896;28;20505;-38
2023/05/20 00:44:54;;;;;;;6.68;4.80;;;12.50;72.70;;;15.62;48.87;97749.31;4975762;28;20503;-37
2023/05/20 00:47:28;;;;;;;6.55;4.10;;;12.60;72.70;;;15.69;48.46;97744.88;4971673;28;20062;-37
2023/05/20 00:49:57;;;;;;;5.50;4.38;;;12.70;72.60;;;15.73;48.57;97743.50;4974089;28;20051;-38
2023/05/20 00:52:26;;;;;;;6.63;5.07;;;12.70;73.20;;;15.78;48.59;97741.06;4950065;28;20047;-38
2023/05/20 00:54:53;;;;;;;8.07;4.80;;;12.80;72.20;;;15.75;48.70;97739.59;4958043;28;20051;-38
2023/05/20 00:57:21;;;;;;;7.10;5.05;;;12.80;72.40;;;15.75;48.71;97738.75;4958132;28;20039;-38
2023/05/20 00:59:48;;;;;;;6.50;4.20;;;12.80;72.30;;;15.74;48.55;97731.72;4957139;28;20066;-38
2023/05/20 01:02:17;;;;;;;5.28;3.85;;;12.80;72.50;;;15.78;48.65;97741.06;4975563;28;20049;-38
2023/05/20 01:04:46;;;;;;;5.50;4.20;;;12.80;72.20;;;15.82;48.66;97736.97;4975401;28;20074;-38
2023/05/20 01:07:18;;;;;;;4.97;4.45;;;12.90;72.20;;;15.84;48.53;97745.66;4975278;28;20046;-38
2023/05/20 01:09:46;;;;;;;5.30;4.43;;;12.90;72.50;;;15.87;48.53;97733.72;4965003;28;20055;-38
2023/05/20 01:12:29;;;;;;;4.40;3.90;;;12.90;72.20;;;15.90;48.46;97730.66;4956994;28;20506;-38
2023/05/20 01:15:11;;;;;;;5.50;4.20;;;12.90;72.40;;;15.91;48.57;97733.13;4957683;28;20423;-38
2023/05/20 01:17:43;;;;;;;5.32;4.40;;;12.90;72.50;;;15.89;48.86;97729.78;4957633;28;20123;-38
2023/05/20 01:20:13;;;;;;;4.75;4.10;;;12.90;72.50;;;15.92;48.92;97729.41;4973618;28;20061;-38
2023/05/20 01:22:55;;;;;;;5.43;3.65;;;13.00;72.60;;;15.94;48.65;97730.06;4975119;28;20049;-38
2023/05/20 01:25:25;;;;;;;4.65;3.58;;;13.00;72.60;;;15.98;48.70;97730.50;4973454;28;20055;-38
2023/05/20 01:27:58;;;;;;;5.82;3.97;;;13.00;72.30;;;16.01;48.80;97734.66;4975249;28;20057;-38
2023/05/20 01:30:33;;;;;;;5.00;3.80;;;13.10;72.40;;;16.03;48.63;97735.28;4957228;28;20038;-38
2023/05/20 01:33:07;;;;;;;8.45;3.90;;;13.10;72.60;;;16.04;48.64;97735.09;4957188;28;20055;-38
2023/05/20 01:35:35;;;;;;;6.50;4.05;;;13.10;73.30;;;16.05;48.64;97728.72;4973902;28;20062;-37
2023/05/20 01:38:05;;;;;;;5.05;4.03;;;13.10;72.20;;;16.02;48.71;97725.59;4956640;28;20062;-37
2023/05/20 01:40:33;;;;;;;6.55;3.75;;;13.10;72.50;;;16.01;48.75;97723.91;4973390;28;20054;-37
2023/05/20 01:43:03;;;;;;;5.43;4.07;;;13.00;72.50;;;16.04;48.77;97726.22;4955910;28;20058;-37
2023/05/20 01:45:30;;;;;;;6.28;4.35;;;13.10;72.60;;;16.04;48.85;97726.22;4973634;28;20057;-37
2023/05/20 01:48:00;;;;;;;5.45;4.07;;;13.00;72.70;;;16.05;48.84;97723.34;4956035;28;20530;-37
2023/05/20 01:50:28;;;;;;;6.82;4.43;;;13.00;72.70;;;16.03;48.89;97721.84;4956405;28;20054;-37
2023/05/20 01:52:55;;;;;;;4.97;3.85;;;13.00;72.70;;;15.98;49.12;97722.44;4974225;28;20399;-37
2023/05/20 01:55:24;;;;;;;5.00;3.72;;;13.00;73.10;;;15.96;48.86;97718.31;4974649;28;20038;-37
2023/05/20 01:57:52;;;;;;;4.93;4.38;;;13.00;73.10;;;16.00;48.99;97719.56;4964305;28;20082;-37
2023/05/20 02:00:20;;;;;;;4.40;3.42;;;13.00;73.10;;;15.99;48.84;97718.72;4972436;28;20489;-37
2023/05/20 02:02:48;;;;;;;4.85;4.32;;;13.00;72.90;;;15.95;49.23;97717.44;4957379;28;20039;-37
2023/05/20 02:05:16;;;;;;;6.00;4.03;;;13.00;73.20;;;15.92;49.22;97723.22;4974274;28;20046;-37
2023/05/20 02:07:44;;;;;;;6.22;3.92;;;12.90;73.40;;;15.92;49.17;97724.06;4964673;28;20054;-37
2023/05/20 02:10:12;;;;;;;7.05;4.50;;;12.90;73.50;;;15.89;49.21;97718.22;4973666;28;20046;-37
2023/05/20 02:12:40;;;;;;;4.78;4.15;;;12.90;73.80;;;15.86;49.34;97711.41;4973779;28;20053;-37
2023/05/20 02:15:09;;;;;;;7.15;4.78;;;12.90;74.00;;;15.88;49.40;97714.72;4972704;28;20051;-37
2023/05/20 02:17:36;;;;;;;4.50;3.92;;;12.90;74.10;;;15.89;49.46;97715.53;4964200;28;20050;-37
2023/05/20 02:20:06;;;;;;;5.53;3.72;;;12.90;74.20;;;15.93;49.56;97711.44;4973986;28;20047;-37
2023/05/20 02:22:34;;;;;;;5.60;3.90;;;13.00;73.90;;;15.98;49.55;97708.19;4964473;28;20054;-37
2023/05/20 02:25:03;;;;;;;5.07;3.80;;;13.00;73.60;;;16.00;49.58;97706.16;4972317;28;20071;-37
2023/05/20 02:27:31;;;;;;;6.75;4.03;;;13.00;73.90;;;15.96;49.50;97708.38;4973860;28;20073;-37
2023/05/20 02:30:00;;;;;;;6.30;3.75;;;12.90;74.30;;;15.94;49.53;97713.13;4973460;28;20053;-37
2023/05/20 02:32:27;;;;;;;6.47;4.00;;;13.00;74.30;;;15.92;49.63;97701.75;4955993;28;20050;-37
2023/05/20 02:34:55;;;;;;;6.28;4.15;;;12.90;74.40;;;15.95;49.60;97704.03;4956147;28;20047;-37
2023/05/20 02:37:23;;;;;;;6.63;3.90;;;13.00;74.30;;;15.92;49.75;97710.63;4956096;28;20049;-37
2023/05/20 02:39:51;;;;;;;6.15;4.00;;;13.00;74.50;;;15.90;49.69;97707.31;4964176;28;20059;-37
2023/05/20 02:42:19;;;;;;;5.10;4.43;;;13.00;74.60;;;15.88;49.87;97701.31;4973789;28;20050;-37
2023/05/20 02:44:47;;;;;;;5.28;4.18;;;13.00;74.80;;;15.84;49.93;97705.41;4964017;28;20078;-37
2023/05/20 02:47:14;;;;;;;6.18;4.05;;;12.90;74.90;;;15.86;49.95;97700.66;4947872;28;20072;-37
2023/05/20 02:49:42;;;;;;;4.82;4.25;;;12.90;75.00;;;15.88;50.02;97697.78;4970767;28;20050;-37
2023/05/20 02:52:10;;;;;;;4.97;4.47;;;12.90;75.00;;;15.91;49.89;97695.53;4955572;28;20047;-37
2023/05/20 02:54:37;;;;;;;5.88;4.32;;;13.00;74.80;;;15.89;49.83;97697.56;4956095;28;20057;-37
2023/05/20 02:57:05;;;;;;;5.65;4.32;;;13.00;74.80;;;15.92;49.86;97689.16;4972988;28;20047;-37
2023/05/20 02:59:33;;;;;;;5.22;4.30;;;13.00;74.60;;;15.98;50.00;97692.09;4972226;28;20058;-37
2023/05/20 03:02:00;;;;;;;7.03;4.50;;;13.10;74.70;;;15.99;49.84;97696.41;4971918;28;20073;-37
2023/05/20 03:04:30;;;;;;;5.18;4.15;;;13.10;74.30;;;15.99;49.72;97696.41;4955444;28;20055;-37
2023/05/20 03:06:58;;;;;;;5.30;3.92;;;13.10;74.30;;;16.00;49.76;97700.78;4955578;28;20081;-37
2023/05/20 03:09:26;;;;;;;4.93;3.67;;;13.10;74.50;;;15.90;49.95;97701.94;4971624;28;20047;-37
2023/05/20 03:11:53;;;;;;;5.75;4.22;;;13.00;74.60;;;15.89;50.14;97697.56;4947422;28;20047;-37
2023/05/20 03:14:21;;;;;;;5.38;4.15;;;13.00;74.60;;;15.91;50.09;97694.72;4955640;28;20047;-37
2023/05/20 03:16:49;;;;;;;8.10;4.70;;;13.00;74.80;;;15.94;50.14;97700.53;4955181;28;20423;-37
2023/05/20 03:19:18;;;;;;;4.63;4.05;;;13.00;75.70;;;16.00;49.98;97690.03;4955055;28;20039;-37
2023/05/20 03:21:46;;;;;;;5.80;5.20;;;13.10;75.00;;;16.06;50.02;97697.31;4971258;28;20053;-37
2023/05/20 03:24:14;;;;;;;6.43;4.25;;;13.10;75.00;;;16.09;49.96;97697.75;4971043;28;20058;-37
2023/05/20 03:26:42;;;;;;;6.60;4.43;;;13.20;74.90;;;16.14;49.85;97697.16;4955130;28;20055;-37
2023/05/20 03:29:10;;;;;;;5.95;4.40;;;13.20;74.80;;;16.19;49.89;97704.63;4955318;28;20526;-37
2023/05/20 03:31:37;;;;;;;5.53;4.63;;;13.20;74.80;;;16.22;49.77;97694.31;4972980;28;20047;-37
2023/05/20 03:34:05;;;;;;;4.95;4.45;;;13.30;74.90;;;16.24;49.84;97702.19;4972699;28;20047;-37
2023/05/20 03:36:33;;;;;;;4.65;3.40;;;13.20;74.80;;;16.23;49.77;97706.75;4955112;28;20078;-37
2023/05/20 03:39:03;;;;;;;5.63;3.97;;;13.20;75.00;;;16.25;49.89;97703.88;4955182;28;20059;-37
2023/05/20 03:41:32;;;;;;;6.57;4.32;;;13.20;75.00;;;16.28;49.82;97706.13;4962819;28;20054;-37
2023/05/20 03:43:59;;;;;;;5.57;4.25;;;13.30;75.10;;;16.28;49.87;97700.78;4954753;28;20043;-37
2023/05/20 03:46:27;;;;;;;5.15;4.10;;;13.20;75.30;;;16.28;50.01;97703.44;4954274;28;20047;-37
2023/05/20 03:48:56;;;;;;;5.47;4.50;;;13.30;75.20;;;16.29;49.81;97705.13;4959698;28;20430;-37
2023/05/20 03:51:24;;;;;;;5.78;4.35;;;13.30;75.20;;;16.26;49.88;97706.34;4954547;28;20046;-37
2023/05/20 03:53:55;;;;;;;5.45;4.10;;;13.20;75.30;;;16.27;49.94;97707.19;4962977;28;20047;-37
2023/05/20 03:56:22;;;;;;;9.55;4.80;;;13.20;75.30;;;16.25;50.03;97707.38;4971927;28;20042;-37
2023/05/20 03:58:50;;;;;;;4.25;3.85;;;13.20;75.20;;;16.24;49.93;97710.25;4972442;28;20050;-37
2023/05/20 04:01:18;;;;;;;6.25;4.38;;;13.30;75.30;;;16.24;50.03;97705.69;4962241;28;20051;-37
2023/05/20 04:03:46;;;;;;;8.45;4.60;;;13.30;75.30;;;16.25;49.92;97703.88;4971319;28;20054;-37
2023/05/20 04:06:14;;;;;;;5.75;3.90;;;13.30;75.30;;;16.23;49.91;97704.06;4953924;28;20058;-37
2023/05/20 04:08:41;;;;;;;5.57;4.35;;;13.20;75.30;;;16.22;49.90;97709.63;4962088;28;20426;-37
2023/05/20 04:11:09;;;;;;;8.27;4.10;;;13.20;75.50;;;16.21;49.95;97705.28;4954172;28;20399;-37
2023/05/20 04:13:37;;;;;;;4.78;4.22;;;13.20;75.60;;;16.17;50.11;97707.53;4972156;28;20055;-37
2023/05/20 04:16:05;;;;;;;6.45;4.40;;;13.10;75.70;;;16.15;50.07;97701.53;4970948;28;20423;-37
2023/05/20 04:18:37;;;;;;;5.13;4.50;;;13.10;75.80;;;16.11;50.16;97703.75;4954335;28;20054;-37
2023/05/20 04:21:05;;;;;;;5.60;4.38;;;13.10;76.00;;;16.08;49.96;97697.94;4953875;28;20050;-37
2023/05/20 04:23:33;;;;;;;5.00;4.15;;;13.10;76.00;;;16.05;50.30;97699.19;4970402;28;20050;-37
2023/05/20 04:26:01;;;;;;;7.45;5.57;;;13.00;76.10;;;16.02;50.38;97696.88;4962420;28;20058;-37
2023/05/20 04:28:31;;;;;;;6.68;4.65;;;13.00;76.40;;;16.00;50.40;97698.91;4972157;28;20053;-37
2023/05/20 04:31:03;;;;;;;5.57;4.70;;;13.00;77.50;;;16.00;50.46;97703.47;4970302;28;20430;-37
2023/05/20 04:33:36;;;;;;;8.00;5.13;;;13.00;76.90;;;15.99;50.46;97702.63;4954514;28;20047;-37
2023/05/20 04:36:15;;;;;;;7.00;4.25;;;12.90;77.90;;;15.97;50.41;97691.25;4962672;28;20047;-37
2023/05/20 04:38:44;;;;;;;7.22;4.35;;;12.90;77.20;;;15.95;50.50;97693.28;4962524;28;20475;-37
2023/05/20 04:41:11;;;;;;;7.85;4.68;;;12.90;77.30;;;15.93;50.64;97690.78;4961688;28;20051;-37
2023/05/20 04:43:39;;;;;;;6.00;4.70;;;12.90;77.30;;;15.93;50.63;97687.28;4970164;28;20242;-37
2023/05/20 04:46:08;;;;;;;6.65;4.57;;;12.90;77.40;;;15.91;50.76;97686.66;4953711;28;20051;-37
2023/05/20 04:48:37;;;;;;;5.82;4.55;;;12.90;77.60;;;15.90;50.68;97685.84;4970408;28;20058;-37
2023/05/20 04:51:04;;;;;;;6.32;5.07;;;12.90;77.80;;;15.88;50.90;97682.50;4971310;28;20050;-37
2023/05/20 04:53:34;;;;;;;7.88;5.15;;;12.90;78.00;;;15.88;50.75;97684.38;4971081;28;20391;-37
2023/05/20 04:56:02;;;;;;;6.22;5.28;;;12.80;77.90;;;15.84;50.83;97683.94;4971424;28;20051;-37
2023/05/20 04:58:30;;;;;;;7.47;5.20;;;12.80;78.20;;;15.84;51.04;97681.25;4953959;28;20047;-37
2023/05/20 05:01:00;;;;;;;5.28;4.60;;;12.80;78.40;;;15.82;50.96;97677.06;4953938;28;20077;-37
2023/05/20 05:03:28;;;;;;;6.68;4.80;;;12.80;78.60;;;15.82;51.22;97679.75;4946351;28;20051;-37
2023/05/20 05:05:57;;;;;;;6.25;5.05;;;12.80;78.70;;;15.82;51.16;97688.66;4954139;28;20542;-37
2023/05/20 05:08:25;;;;;;;5.55;4.47;;;12.90;78.90;;;15.86;51.36;97681.06;4971169;28;20530;-37
2023/05/20 05:10:53;;;;;;;6.03;4.60;;;12.90;78.90;;;15.89;51.45;97686.03;4953692;28;20053;-37
2023/05/20 05:13:21;;;;;;;6.88;5.38;;;12.90;78.90;;;15.93;51.38;97676.56;4953289;28;20067;-37
2023/05/20 05:15:58;;;;;;;7.85;5.43;;;13.00;78.90;;;16.00;51.21;97688.19;4970483;28;20054;-37
2023/05/20 05:18:27;;;;;;;9.70;5.88;;;13.10;79.10;;;16.02;51.35;97679.94;4956246;28;20065;-37
2023/05/20 05:21:02;;;;;;;6.40;4.97;;;13.20;78.60;;;16.06;51.37;97679.34;4974665;28;20038;-37
2023/05/20 05:23:32;;;;;;;7.18;5.07;;;13.20;78.50;;;16.10;51.35;97680.59;4958148;28;20051;-37
2023/05/20 05:25:59;;;;;;;5.85;5.03;;;13.30;78.50;;;16.16;51.26;97678.19;4964964;28;20085;-37
2023/05/20 05:28:27;;;;;;;6.55;4.30;;;13.30;78.30;;;16.24;51.20;97675.31;4957493;28;20507;-37
2023/05/20 05:30:55;;;;;;;5.80;5.18;;;13.40;78.00;;;16.30;51.29;97669.16;4974860;28;20043;-37
2023/05/20 05:33:23;;;;;;;7.07;5.03;;;13.50;78.00;;;16.30;51.37;97656.59;4973413;28;20043;-37
2023/05/20 05:35:50;;;;;;;6.32;4.43;;;13.60;78.40;;;16.33;51.50;97656.19;4957146;28;20529;-37
2023/05/20 05:38:18;;;;;;;9.68;5.30;;;13.60;77.70;;;16.38;51.41;97658.28;4957200;28;20073;-37
2023/05/20 05:40:46;;;;;;;6.07;4.93;;;13.70;77.80;;;16.47;51.53;97658.94;4974661;28;20035;-37
2023/05/20 05:43:15;;;;;;;7.88;5.63;;;13.70;77.60;;;16.52;51.35;97661.88;4956762;28;20047;-36
2023/05/20 05:45:44;;;;;;;10.55;5.28;;;13.80;77.30;;;16.64;51.36;97665.66;4965295;28;20418;-36
2023/05/20 05:48:12;;;;;;;5.82;4.95;;;14.00;77.40;;;16.77;51.36;97666.72;4957060;28;20062;-36
2023/05/20 05:50:45;;;;;;;8.00;5.50;;;14.00;77.10;;;16.88;50.86;97668.88;4957111;28;20070;-36
2023/05/20 05:53:15;;;;;;;6.93;5.22;;;14.20;76.60;;;16.92;51.13;97668.28;4972753;28;20050;-36
2023/05/20 05:55:46;;;;;;;6.07;4.80;;;14.20;76.50;;;16.98;50.84;97666.63;4956741;28;20073;-36
2023/05/20 05:58:15;;;;;;;5.85;4.63;;;14.30;76.20;;;17.02;50.91;97665.22;4957040;28;20074;-36
2023/05/20 06:00:43;;;;;;;9.93;4.90;;;14.30;76.10;;;17.09;50.81;97655.28;4956796;28;20076;-36
2023/05/20 06:03:10;;;;;;;6.55;5.57;;;14.40;76.00;;;17.11;50.70;97661.28;4957054;28;20403;-37
2023/05/20 06:05:39;;;;;;;6.10;5.28;;;14.50;75.70;;;17.11;50.66;97655.09;4956741;28;20061;-36
2023/05/20 06:08:07;;;;;;;7.38;5.60;;;14.50;75.70;;;17.10;50.81;97656.16;4956789;28;20055;-36
2023/05/20 06:10:36;;;;;;;6.28;5.20;;;14.40;75.80;;;17.16;50.83;97658.03;4973506;28;20051;-35
2023/05/20 06:13:04;;;;;;;8.23;5.10;;;14.50;75.90;;;17.24;50.73;97662.38;4956372;28;20062;-36
2023/05/20 06:15:32;;;;;;;8.98;5.03;;;14.50;75.80;;;17.31;50.76;97655.13;4956861;28;20058;-36
2023/05/20 06:18:02;;;;;;;6.20;4.95;;;14.60;75.60;;;17.36;50.54;97649.97;4956311;28;20047;-36
2023/05/20 06:20:31;;;;;;;5.57;5.03;;;14.70;75.40;;;17.41;50.66;97655.59;4972445;28;20058;-36
2023/05/20 06:22:59;;;;;;;5.72;5.00;;;14.70;75.50;;;17.43;50.49;97650.00;4964338;28;20043;-36
2023/05/20 06:25:35;;;;;;;5.97;4.50;;;14.80;76.30;;;17.47;50.56;97654.75;4949734;28;20053;-36
2023/05/20 06:28:03;;;;;;;6.45;5.07;;;14.80;75.40;;;17.52;50.43;97649.59;4956253;28;20042;-36
2023/05/20 06:30:31;;;;;;;7.53;5.13;;;14.80;75.30;;;17.54;50.56;97652.06;4971271;28;20043;-36
2023/05/20 06:32:59;;;;;;;7.05;5.38;;;14.80;75.20;;;17.56;50.45;97641.94;4956189;28;20388;-36
2023/05/20 06:35:26;;;;;;;6.95;5.15;;;14.90;75.40;;;17.61;50.49;97647.53;4973392;28;20051;-36
2023/05/20 06:37:54;;;;;;;5.47;4.57;;;14.90;75.40;;;17.62;50.59;97642.97;4964287;28;20047;-38
2023/05/20 06:40:22;;;;;;;8.00;5.00;;;14.90;75.10;;;17.63;50.58;97637.38;4955844;28;20043;-36
2023/05/20 06:42:50;;;;;;;7.70;5.60;;;14.90;75.10;;;17.63;50.15;97633.88;4956971;28;20498;-37
2023/05/20 06:45:18;;;;;;;7.43;5.47;;;15.00;75.10;;;17.55;50.66;97626.81;4956535;28;20521;-37
2023/05/20 06:47:53;;;;;;;5.47;4.68;;;15.00;75.00;;;17.58;50.76;97636.34;4954154;28;20415;-37
2023/05/20 06:50:20;;;;;;;6.50;5.32;;;15.00;75.00;;;17.65;50.77;97632.63;4955158;28;20062;-37
2023/05/20 06:52:48;;;;;;;7.63;5.38;;;15.00;75.20;;;17.70;50.46;97630.16;4972361;28;20050;-50
2023/05/20 06:55:16;;;;;;;9.90;5.43;;;15.10;75.00;;;17.74;50.63;97633.25;4956168;28;20050;-46
2023/05/20 06:57:44;;;;;;;6.68;4.93;;;15.10;74.90;;;17.79;50.55;97629.94;4963655;28;20039;-46
2023/05/20 07:00:13;;;;;;;8.10;5.32;;;15.20;74.80;;;17.79;50.64;97625.38;4955960;28;20045;-37
2023/05/20 07:02:42;;;;;;;7.47;5.68;;;15.20;75.00;;;17.81;50.85;97633.25;4955510;28;20427;-37
2023/05/20 07:05:13;;;;;;;7.22;5.38;;;15.20;75.10;;;17.91;50.48;97625.59;4956230;28;20069;-37
2023/05/20 07:07:41;;;;;;;6.10;5.28;;;15.30;74.90;;;17.98;50.68;97631.81;4963742;28;20096;-37
2023/05/20 07:10:09;;;;;;;6.63;5.30;;;15.40;74.60;;;18.17;50.38;97626.63;4955549;28;20050;-37
2023/05/20 07:12:36;;;;;;;7.13;5.93;;;15.60;74.20;;;18.30;50.03;97621.22;4956130;28;20047;-37
2023/05/20 07:15:05;;;;;;;7.18;5.40;;;15.80;73.50;;;18.39;50.06;97619.91;4955330;28;20043;-37
2023/05/20 07:17:34;;;;;;;6.57;5.00;;;15.90;73.50;;;18.51;49.78;97622.78;4971561;28;20043;-37
2023/05/20 07:20:03;;;;;;;6.85;5.88;;;16.00;73.20;;;18.60;49.53;97615.31;4971025;28;20050;-37
2023/05/20 07:22:31;;;;;;;7.68;5.68;;;16.10;72.60;;;18.64;49.72;97611.94;4971868;28;20042;-37
2023/05/20 07:25:28;;;;;;;8.50;5.53;;;16.20;72.60;;;18.73;49.33;97603.63;4956703;28;20081;-37
2023/05/20 07:27:55;;;;;;;5.80;4.97;;;16.20;72.20;;;18.73;49.32;97601.78;4963502;28;20051;-37
2023/05/20 07:30:23;;;;;;;7.88;5.78;;;16.30;72.00;;;18.81;49.34;97601.56;4955067;28;20388;-37
2023/05/20 07:33:07;;;;;;;;;;;16.30;72.00;;;19.08;49.10;97601.41;4955420;28;20299;-37
2023/05/20 07:35:34;;;;;;;5.80;5.25;;;16.40;71.00;;;19.19;48.78;97591.78;4955058;28;19922;-37
2023/05/20 07:38:02;;;;;;;8.43;6.10;;;16.50;72.60;;;19.22;48.67;97594.06;4963325;28;20047;-37
2023/05/20 07:40:31;;;;;;;6.18;5.20;;;16.60;71.20;;;19.27;48.60;97595.06;4954906;28;20198;-37
2023/05/20 07:42:59;;;;;;;6.40;5.53;;;16.70;71.00;;;19.34;48.53;97596.88;4972261;28;20054;-37
2023/05/20 07:45:26;;;;;;;7.40;5.88;;;16.80;70.90;;;19.32;48.23;97588.19;4970845;28;20070;-38
2023/05/20 07:47:54;;;;;;;6.78;5.60;;;16.80;70.20;;;19.34;48.13;97589.59;4956348;28;20043;-50
2023/05/20 07:50:22;;;;;;;7.07;5.93;;;16.80;69.70;;;19.42;48.33;97589.31;4961781;28;20047;-38
2023/05/20 07:52:50;;;;;;;5.25;4.72;;;16.90;69.90;;;19.50;48.52;97592.81;4954923;28;20039;-37
2023/05/20 07:55:26;;;;;;;7.13;5.28;;;17.00;70.30;;;19.67;48.25;97580.41;4954281;28;20058;-37
2023/05/20 07:57:55;;;;;;;8.05;5.28;;;17.20;70.00;;;19.86;47.88;97578.63;4954780;28;20438;-37
2023/05/20 08:00:23;;;;;;;8.07;6.00;;;17.30;69.10;;;20.00;47.39;97568.50;4954395;28;20083;-37
2023/05/20 08:02:51;;;;;;;7.22;5.85;;;17.50;68.00;;;20.10;47.00;97573.41;4963264;28;20062;-37
2023/05/20 08:05:27;;;;;;;6.53;5.35;;;17.60;67.60;;;20.21;46.77;97568.06;4954269;28;20063;-37
2023/05/20 08:07:55;;;;;;;6.82;5.70;;;17.70;67.00;;;20.27;46.55;97572.56;4954386;28;20046;-37
2023/05/20 08:10:25;;;;;;;6.35;5.30;;;17.80;66.40;;;20.36;46.41;97570.41;4954668;28;20054;-37
2023/05/20 08:12:53;;;;;;;5.95;5.15;;;17.90;66.60;;;20.48;46.45;97567.78;4954099;28;20538;-37
2023/05/20 08:15:21;;;;;;;6.70;5.28;;;17.90;66.30;;;20.54;46.20;97574.16;4954719;28;20114;-37
2023/05/20 08:17:49;;;;;;;7.10;5.68;;;18.00;65.80;;;20.54;45.97;97579.56;4970678;28;20050;-38
2023/05/20 08:20:19;;;;;;;6.63;5.50;;;17.90;65.80;;;20.42;45.79;97580.31;4970344;28;20045;-37
2023/05/20 08:22:46;;;;;;;7.65;4.95;;;17.70;66.10;;;20.29;46.29;97572.34;4946986;28;20507;-38
2023/05/20 08:25:14;;;;;;;7.60;5.53;;;17.60;66.50;;;20.22;46.24;97572.44;4954658;28;20043;-37
2023/05/20 08:27:43;;;;;;;6.47;5.60;;;17.60;66.40;;;20.19;45.72;97569.34;4947352;28;20046;-37
2023/05/20 08:30:12;;;;;;;6.63;6.03;;;17.50;65.20;;;20.10;46.13;97565.28;4969797;28;20050;-37
2023/05/20 08:32:40;;;;;;;6.95;6.05;;;17.40;66.60;;;20.01;46.17;97571.00;4970681;28;20051;-37
2023/05/20 08:35:09;;;;;;;6.93;6.10;;;17.30;66.40;;;20.02;46.18;97574.50;4962012;28;20081;-37
2023/05/20 08:37:36;;;;;;;6.82;6.13;;;17.30;66.80;;;20.12;46.37;97574.81;4954090;28;20050;-37
2023/05/20 08:40:05;;;;;;;7.43;5.85;;;17.50;66.90;;;20.19;46.09;97581.00;4970107;28;20043;-37
2023/05/20 08:42:33;;;;;;;6.82;6.13;;;17.60;66.20;;;20.25;46.19;97576.56;4954690;28;20050;-37
2023/05/20 08:45:04;;;;;;;8.18;6.80;;;17.70;65.60;;;20.25;45.93;97579.25;4954477;28;20057;-38
2023/05/20 08:47:32;;;;;;;10.25;6.50;;;17.70;65.00;;;20.26;46.04;97572.81;4962110;28;20058;-38
2023/05/20 08:49:59;;;;;;;6.47;5.57;;;17.80;65.40;;;20.35;46.07;97584.97;4970513;28;20050;-37
2023/05/20 08:52:30;;;;;;;7.78;6.18;;;17.90;65.20;;;20.44;45.76;97583.63;4972371;28;20046;-37
2023/05/20 08:54:58;;;;;;;6.68;5.45;;;18.00;64.80;;;20.52;45.66;97584.38;4973696;28;20039;-37
2023/05/20 08:57:26;;;;;;;6.93;5.45;;;18.10;65.00;;;20.65;45.63;97587.78;4957921;28;20050;-38
2023/05/20 08:59:56;;;;;;;6.47;5.80;;;18.20;64.80;;;20.78;45.67;97586.78;4975499;28;20050;-37
2023/05/20 09:02:23;;;;;;;9.43;5.80;;;18.30;64.60;;;20.89;45.35;97589.78;4975495;28;20042;-38
2023/05/20 09:04:52;;;;;;;7.10;6.40;;;18.40;64.40;;;20.97;45.17;97581.31;4975135;28;20419;-37
2023/05/20 09:07:27;;;;;;;7.68;6.07;;;18.50;64.60;;;21.08;45.00;97583.25;4975186;28;20043;-38
2023/05/20 09:09:56;;;;;;;9.00;5.60;;;18.50;62.80;;;21.08;44.71;97583.25;4975261;28;20414;-38
2023/05/20 09:12:23;;;;;;;8.27;7.47;;;18.50;63.00;;;21.11;44.18;97588.22;4975300;28;20396;-37
2023/05/20 09:14:51;;;;;;;7.15;6.22;;;18.60;62.50;;;21.04;44.42;97585.59;4975029;28;20042;-37
2023/05/20 09:17:21;;;;;;;12.45;6.85;;;18.50;62.60;;;21.06;44.47;97576.44;4975188;28;20047;-37
2023/05/20 09:19:50;;;;;;;6.47;5.45;;;18.60;63.60;;;21.16;44.60;97574.81;4975155;28;20448;-38
2023/05/20 09:22:38;;;;;;;12.00;6.22;;;18.60;62.80;;;21.20;44.44;97569.75;4975342;28;20379;-37
2023/05/20 09:25:06;;;;;;;26.13;18.70;;;18.70;61.90;;;21.20;44.33;97575.16;4975323;28;20049;-38
2023/05/20 09:27:35;;;;;;;9.23;6.53;;;18.60;62.80;;;21.20;44.49;97569.75;4975021;28;20130;-38
2023/05/20 09:30:06;;;;;;;7.07;6.18;;;18.60;63.00;;;21.11;44.41;97566.56;4974973;28;20043;-36
2023/05/20 09:32:34;;;;;;;7.55;5.72;;;18.60;62.80;;;21.09;44.66;97562.41;4974963;28;20047;-37
2023/05/20 09:35:05;;;;;;;18.92;14.70;;;18.50;63.10;;;21.11;44.31;97560.31;4956868;28;20419;-37
2023/05/20 09:37:35;;;;;;;15.35;10.30;;;18.50;63.20;;;21.18;44.38;97558.34;4973443;28;20057;-37
2023/05/20 09:40:05;;;;;;;6.82;6.13;;;18.60;63.00;;;21.27;44.28;97554.25;4973617;28;20039;-37
2023/05/20 09:42:51;;;;;;;6.82;5.85;;;18.70;62.80;;;21.32;44.52;97556.25;4965414;28;20054;-39
2023/05/20 09:45:21;;;;;;;9.30;6.45;;;18.80;62.20;;;21.36;43.96;97550.13;4973628;28;20038;-37
2023/05/20 09:47:51;;;;;;;6.45;5.85;;;18.80;62.00;;;21.37;44.43;97556.38;4974639;28;20503;-37
2023/05/20 09:50:22;;;;;;;7.05;6.35;;;18.80;62.30;;;21.35;43.59;97551.19;4970381;28;20050;-37
2023/05/20 09:52:52;;;;;;;7.38;6.15;;;18.80;61.10;;;21.21;43.87;97547.88;4957648;28;20049;-37
2023/05/20 09:55:23;;;;;;;8.05;5.97;;;18.70;61.20;;;21.25;44.10;97542.81;4974663;28;20039;-38
2023/05/20 09:57:53;;;;;;;6.93;5.75;;;18.70;62.00;;;21.28;43.79;97545.06;4973410;28;20515;-38
2023/05/20 10:00:20;;;;;;;6.88;5.35;;;18.70;61.50;;;21.36;44.08;97543.88;4973056;28;20050;-37
2023/05/20 10:02:52;;;;;;;6.57;5.97;;;18.80;62.00;;;21.47;43.60;97539.59;4974614;28;20050;-38
2023/05/20 10:05:36;;;;;;;7.60;6.10;;;19.00;61.50;;;21.53;43.72;97544.06;4973627;28;20103;-37
2023/05/20 10:08:24;;;;;;;7.70;5.50;;;19.00;61.10;;;21.53;43.33;97538.66;4974937;28;20051;-38
2023/05/20 10:11:00;;;;;;;7.90;5.57;;;19.00;59.60;;;21.51;43.18;97532.66;4974379;28;20050;-37
2023/05/20 10:13:37;;;;;;;5.95;5.35;;;19.00;59.80;;;21.53;43.28;97519.69;4974173;28;20051;-38
2023/05/20 10:16:23;;;;;;;7.53;4.78;;;19.10;60.00;;;21.71;43.43;97521.47;4973389;28;20034;-38
2023/05/20 10:19:26;;;;;;;5.97;5.38;;;19.30;60.40;;;21.95;43.01;97523.09;4967138;28;20062;-38
2023/05/20 10:22:07;;;;;;;6.63;5.35;;;19.50;58.90;;;22.02;42.60;97521.09;4966201;28;20047;-38
2023/05/20 10:24:40;;;;;;;5.93;5.25;;;19.60;58.90;;;22.07;42.33;97522.28;4974162;28;20275;-37
2023/05/20 10:27:11;;;;;;;7.13;5.32;;;19.70;58.70;;;22.25;42.56;97516.72;4956917;28;20513;-38
2023/05/20 10:29:50;;;;;;;5.30;4.80;;;19.90;58.90;;;22.47;42.40;97516.06;4973866;28;20049;-38